Time;durP1;ratioP1;P1;durP2;ratioP2;P2;SDS_P1;SDS_P2;PMS_P1;PMS_P2;Temp;Humidity;BMP_temperature;BMP_pressure;BME280_temperature;BME280_humidity;BME280_pressure;Samples;Min_cycle;Max_cycle;Signal;HPM_P1;HPM_P2
2023/01/06 00:00:47;;;;;;;1.90;1.48;;;12.10;99.90;;;;;;6231069;28;20045;-80
2023/01/06 00:03:50;;;;;;;2.30;2.08;;;12.10;99.90;;;;;;6230562;28;20046;-79
2023/01/06 00:06:51;;;;;;;5.75;2.13;;;12.10;99.90;;;;;;6231150;28;20042;-80
2023/01/06 00:09:53;;;;;;;2.20;1.70;;;12.10;99.90;;;;;;6229207;28;20054;-79
2023/01/06 00:12:56;;;;;;;1.80;1.60;;;12.00;99.90;;;;;;6229505;28;20046;-79
2023/01/06 00:15:58;;;;;;;2.45;2.25;;;12.00;99.90;;;;;;6229912;28;20057;-80
2023/01/06 00:19:00;;;;;;;4.25;1.95;;;12.00;99.90;;;;;;6229985;28;20046;-80
2023/01/06 00:22:02;;;;;;;2.45;2.08;;;12.00;99.90;;;;;;6220686;28;20046;-80
2023/01/06 00:25:04;;;;;;;8.55;2.65;;;12.00;99.90;;;;;;6207288;28;20060;-80
2023/01/06 00:28:07;;;;;;;4.55;2.35;;;12.10;99.90;;;;;;6151064;28;20460;-79
2023/01/06 00:31:11;;;;;;;3.15;2.30;;;12.00;99.90;;;;;;6230135;28;20046;-80
2023/01/06 00:34:12;;;;;;;2.10;1.40;;;12.00;99.90;;;;;;6230078;28;20507;-80
2023/01/06 00:37:14;;;;;;;7.65;2.75;;;12.00;99.90;;;;;;6235681;28;20389;-78
2023/01/06 00:40:16;;;;;;;2.83;2.10;;;12.00;99.90;;;;;;6236315;28;20414;-81
2023/01/06 00:43:19;;;;;;;3.80;1.85;;;12.00;99.90;;;;;;6235957;28;20049;-78
2023/01/06 00:46:21;;;;;;;2.47;1.73;;;12.00;99.90;;;;;;6231352;28;20052;-81
2023/01/06 00:49:23;;;;;;;4.43;3.25;;;12.00;99.90;;;;;;6231010;28;20050;-81
2023/01/06 00:52:24;;;;;;;4.78;2.25;;;12.00;99.90;;;;;;6230216;28;20052;-80
2023/01/06 00:55:26;;;;;;;4.03;1.92;;;12.00;99.90;;;;;;6230604;28;20614;-81
2023/01/06 00:58:31;;;;;;;3.90;2.00;;;12.00;99.90;;;;;;6229463;28;20049;-80
2023/01/06 01:01:34;;;;;;;3.08;1.70;;;12.00;99.90;;;;;;6230283;28;20046;-81
2023/01/06 01:04:36;;;;;;;2.42;1.63;;;12.00;99.90;;;;;;6230044;28;20053;-81
2023/01/06 01:07:39;;;;;;;3.38;1.73;;;12.00;99.90;;;;;;6229607;28;20041;-81
2023/01/06 01:10:41;;;;;;;4.45;1.77;;;12.00;99.90;;;;;;6229703;28;20065;-81
2023/01/06 01:13:44;;;;;;;2.70;1.83;;;12.00;99.90;;;;;;6253659;23;20061;-78
2023/01/06 01:16:46;;;;;;;3.13;1.90;;;12.00;99.90;;;;;;6225885;28;20052;-78
2023/01/06 01:19:49;;;;;;;4.80;2.08;;;12.00;99.90;;;;;;6225409;28;20046;-79
2023/01/06 01:22:51;;;;;;;1.80;1.50;;;12.00;99.90;;;;;;6224430;28;20053;-78
2023/01/06 01:25:54;;;;;;;2.03;1.83;;;12.00;99.90;;;;;;6225749;28;20056;-78
2023/01/06 01:28:57;;;;;;;1.95;1.60;;;12.10;99.90;;;;;;6226527;28;20042;-79
2023/01/06 01:31:59;;;;;;;2.25;1.70;;;12.10;99.90;;;;;;6232540;28;20053;-79
2023/01/06 01:35:01;;;;;;;4.50;1.55;;;12.00;99.90;;;;;;6232571;28;20042;-79
2023/01/06 01:38:03;;;;;;;4.00;1.48;;;12.10;99.90;;;;;;6231987;28;20061;-79
2023/01/06 01:41:05;;;;;;;3.25;1.50;;;12.10;99.90;;;;;;6231708;28;20045;-78
2023/01/06 01:44:40;;;;;;;2.72;1.73;;;12.10;99.90;;;;;;6228189;28;20053;-79
2023/01/06 01:47:47;;;;;;;7.78;1.85;;;12.20;99.90;;;;;;6235805;28;20050;-78
2023/01/06 01:50:53;;;;;;;4.93;1.93;;;12.20;99.90;;;;;;6239556;28;20046;-78
2023/01/06 01:53:58;;;;;;;2.67;1.30;;;12.20;99.90;;;;;;6245236;28;20050;-78
2023/01/06 01:57:06;;;;;;;4.45;1.60;;;12.20;99.90;;;;;;6245446;28;20056;-78
2023/01/06 02:00:09;;;;;;;3.03;1.40;;;12.20;99.90;;;;;;6246723;28;20072;-78
2023/01/06 02:03:14;;;;;;;1.42;1.33;;;12.20;99.90;;;;;;6243472;28;20046;-78
2023/01/06 02:06:18;;;;;;;1.67;1.58;;;12.30;99.90;;;;;;6232990;28;20053;-79
2023/01/06 02:09:23;;;;;;;2.88;1.55;;;12.30;99.90;;;;;;6230246;28;20050;-78
2023/01/06 02:12:25;;;;;;;1.63;1.48;;;12.30;99.90;;;;;;6229466;28;20507;-78
2023/01/06 02:15:30;;;;;;;2.42;1.80;;;12.30;99.90;;;;;;6227829;28;20049;-78
2023/01/06 02:18:53;;;;;;;6.40;1.90;;;12.40;99.90;;;;;;6229066;28;20056;-79
2023/01/06 02:22:16;;;;;;;2.78;1.80;;;12.40;99.90;;;;;;6229332;28;20049;-78
2023/01/06 02:25:38;;;;;;;2.50;1.60;;;12.40;99.90;;;;;;6229800;28;20061;-78
2023/01/06 02:29:16;;;;;;;2.95;1.38;;;12.40;99.90;;;;;;6228373;28;20054;-78
2023/01/06 02:32:59;;;;;;;4.90;2.08;;;12.30;99.90;;;;;;6225808;28;20404;-78
2023/01/06 02:36:26;;;;;;;2.70;2.13;;;12.30;99.90;;;;;;6210637;28;20101;-79
2023/01/06 02:39:42;;;;;;;5.75;2.03;;;12.10;99.90;;;;;;6228277;28;20046;-78
2023/01/06 02:42:54;;;;;;;2.78;2.47;;;11.90;99.90;;;;;;6230178;28;20046;-78
2023/01/06 02:46:06;;;;;;;4.20;1.85;;;11.80;99.90;;;;;;6229848;28;20053;-79
2023/01/06 02:49:15;;;;;;;2.47;2.28;;;11.80;99.90;;;;;;6229553;28;20050;-79
2023/01/06 02:52:28;;;;;;;2.85;2.30;;;11.70;99.90;;;;;;6229826;28;20042;-79
2023/01/06 02:55:35;;;;;;;5.28;2.13;;;11.70;99.90;;;;;;6229498;28;20057;-79
2023/01/06 02:58:46;;;;;;;2.50;1.85;;;11.70;99.90;;;;;;6229214;28;20049;-79
2023/01/06 03:01:51;;;;;;;3.38;2.63;;;11.70;99.90;;;;;;6229700;28;20050;-79
2023/01/06 03:04:55;;;;;;;2.90;2.40;;;11.70;99.90;;;;;;6229296;28;20050;-78
2023/01/06 03:08:02;;;;;;;2.58;2.20;;;11.70;99.90;;;;;;6229655;28;20177;-79
2023/01/06 03:11:04;;;;;;;6.15;2.40;;;11.70;99.90;;;;;;6229230;28;20048;-79
2023/01/06 03:14:13;;;;;;;2.75;2.20;;;11.70;99.90;;;;;;6229007;28;20050;-79
2023/01/06 03:17:15;;;;;;;2.97;2.45;;;11.70;99.90;;;;;;6227872;28;20050;-79
2023/01/06 03:20:17;;;;;;;5.32;2.03;;;11.70;99.90;;;;;;6229055;28;20046;-79
2023/01/06 03:23:20;;;;;;;2.70;1.98;;;11.60;99.90;;;;;;6219519;28;20053;-79
2023/01/06 03:26:24;;;;;;;2.25;1.90;;;11.70;99.90;;;;;;6207698;28;20054;-78
2023/01/06 03:29:26;;;;;;;4.85;2.00;;;11.70;99.90;;;;;;6207777;28;20650;-79
2023/01/06 03:32:33;;;;;;;3.00;1.83;;;11.60;99.90;;;;;;6208261;28;20495;-79
2023/01/06 03:35:46;;;;;;;3.78;2.35;;;11.60;99.90;;;;;;6209604;28;20053;-78
2023/01/06 03:39:02;;;;;;;3.40;1.90;;;11.60;99.90;;;;;;6230679;28;20054;-78
2023/01/06 03:46:03;;;;;;;5.32;2.35;;;11.60;99.90;;;;;;6231956;28;20050;-79
2023/01/06 03:49:10;;;;;;;4.40;3.03;;;11.50;99.90;;;;;;6231276;28;20061;-79
2023/01/06 03:52:19;;;;;;;7.88;3.50;;;11.50;99.90;;;;;;6231635;28;20415;-78
2023/01/06 03:55:29;;;;;;;4.00;2.85;;;11.40;99.90;;;;;;6231468;28;20056;-78
2023/01/06 03:58:32;;;;;;;3.88;3.05;;;11.50;99.90;;;;;;6231592;28;20046;-79
2023/01/06 04:01:34;;;;;;;4.60;2.33;;;11.40;99.90;;;;;;6231589;28;20049;-78
2023/01/06 04:04:36;;;;;;;3.92;3.30;;;11.40;99.90;;;;;;6231070;28;20054;-79
2023/01/06 04:07:39;;;;;;;5.35;3.53;;;11.40;99.90;;;;;;6230558;28;20065;-78
2023/01/06 04:10:42;;;;;;;3.83;3.17;;;11.40;99.90;;;;;;6231674;28;20053;-78
2023/01/06 04:13:43;;;;;;;4.28;3.88;;;11.40;99.90;;;;;;6231575;28;20061;-78
2023/01/06 04:16:44;;;;;;;12.40;3.67;;;11.40;99.90;;;;;;6232550;28;20049;-78
2023/01/06 04:19:46;;;;;;;5.20;2.55;;;11.40;99.90;;;;;;6232417;28;20507;-78
2023/01/06 04:22:48;;;;;;;10.10;3.78;;;11.30;99.90;;;;;;6231571;28;20042;-79
2023/01/06 04:25:51;;;;;;;4.80;4.10;;;11.30;99.90;;;;;;6232143;28;20061;-79
2023/01/06 04:28:52;;;;;;;4.55;3.95;;;11.30;99.90;;;;;;6230988;28;20148;-78
2023/01/06 04:31:54;;;;;;;5.60;4.53;;;11.30;99.90;;;;;;6230758;28;20045;-78
2023/01/06 04:34:56;;;;;;;5.65;4.57;;;11.30;99.90;;;;;;6226629;28;20046;-79
2023/01/06 04:38:00;;;;;;;6.50;4.45;;;11.30;99.90;;;;;;6228818;28;20064;-78
2023/01/06 04:41:03;;;;;;;5.13;4.25;;;11.30;99.90;;;;;;6229727;28;20061;-78
2023/01/06 04:44:05;;;;;;;5.07;4.57;;;11.30;99.90;;;;;;6230158;28;20056;-78
2023/01/06 04:47:07;;;;;;;7.97;4.18;;;11.30;99.90;;;;;;6229486;28;20048;-78
2023/01/06 04:50:09;;;;;;;6.13;4.28;;;11.30;99.90;;;;;;6229785;28;20415;-78
2023/01/06 04:53:12;;;;;;;8.13;5.25;;;11.30;99.90;;;;;;6228874;28;20045;-78
2023/01/06 04:56:15;;;;;;;5.57;4.18;;;11.30;99.90;;;;;;6229788;28;20050;-79
2023/01/06 04:59:17;;;;;;;5.70;4.30;;;11.30;99.90;;;;;;6228497;28;20046;-79
2023/01/06 05:02:18;;;;;;;6.05;4.50;;;11.30;99.90;;;;;;6229514;28;20046;-78
2023/01/06 05:05:20;;;;;;;6.95;4.05;;;11.30;99.90;;;;;;6229096;28;20045;-78
2023/01/06 05:08:22;;;;;;;4.43;3.15;;;11.20;99.90;;;;;;6229474;28;20048;-78
2023/01/06 05:11:26;;;;;;;3.83;3.53;;;11.30;99.90;;;;;;6229114;28;20041;-78
2023/01/06 05:14:28;;;;;;;6.30;2.72;;;11.30;99.90;;;;;;6225906;28;20058;-78
2023/01/06 05:17:29;;;;;;;4.22;3.45;;;11.30;99.90;;;;;;6204972;28;20518;-78
2023/01/06 05:20:31;;;;;;;5.55;4.05;;;11.30;99.90;;;;;;6203844;28;20061;-78
2023/01/06 05:23:33;;;;;;;4.25;3.33;;;11.30;99.90;;;;;;6204369;28;20053;-78
2023/01/06 05:26:36;;;;;;;4.93;4.30;;;11.20;99.90;;;;;;6205156;28;20054;-78
2023/01/06 05:29:38;;;;;;;5.25;4.30;;;11.30;99.90;;;;;;6204892;28;20054;-79
2023/01/06 05:32:39;;;;;;;4.97;4.22;;;11.20;99.90;;;;;;6204608;28;20042;-78
2023/01/06 05:35:41;;;;;;;5.68;4.82;;;11.20;99.90;;;;;;6219724;28;20114;-77
2023/01/06 05:38:44;;;;;;;5.72;5.05;;;11.10;99.90;;;;;;6212641;28;20443;-78
2023/01/06 05:41:47;;;;;;;6.13;3.95;;;11.20;99.90;;;;;;6204158;28;20054;-78
2023/01/06 05:44:48;;;;;;;7.70;5.32;;;11.10;99.90;;;;;;6203914;28;20049;-79
2023/01/06 05:47:50;;;;;;;6.53;4.45;;;11.10;99.90;;;;;;6203138;28;20053;-79
2023/01/06 05:50:52;;;;;;;6.07;4.90;;;11.10;99.90;;;;;;6203084;28;20073;-79
2023/01/06 05:53:54;;;;;;;5.72;5.13;;;11.10;99.90;;;;;;6204374;28;20057;-79
2023/01/06 05:56:57;;;;;;;6.95;4.47;;;11.10;99.90;;;;;;6204300;28;20057;-79
2023/01/06 05:59:58;;;;;;;6.35;4.13;;;11.10;99.90;;;;;;6203781;28;20046;-78
2023/01/06 06:03:00;;;;;;;9.18;5.03;;;11.10;99.90;;;;;;6203581;28;20050;-78
2023/01/06 06:06:03;;;;;;;7.68;5.15;;;11.00;99.90;;;;;;6203834;28;20058;-78
2023/01/06 06:09:05;;;;;;;8.05;5.05;;;11.00;99.90;;;;;;6202777;28;20046;-78
2023/01/06 06:12:09;;;;;;;5.78;5.10;;;11.00;99.90;;;;;;6203153;28;20046;-78
2023/01/06 06:15:10;;;;;;;5.22;4.43;;;11.00;99.90;;;;;;6202401;28;20046;-79
2023/01/06 06:18:12;;;;;;;5.63;4.53;;;11.00;99.90;;;;;;6203267;28;20061;-79
2023/01/06 06:21:16;;;;;;;6.80;4.78;;;11.00;99.90;;;;;;6203604;28;20054;-79
2023/01/06 06:24:18;;;;;;;8.35;4.55;;;11.10;99.90;;;;;;6203185;28;20053;-79
2023/01/06 06:27:21;;;;;;;6.00;4.45;;;11.10;99.90;;;;;;6202170;28;20050;-78
2023/01/06 06:30:22;;;;;;;10.50;5.00;;;11.10;99.90;;;;;;6203530;28;20056;-80
2023/01/06 06:33:24;;;;;;;6.18;4.95;;;11.10;99.90;;;;;;6203022;28;20424;-79
2023/01/06 06:36:27;;;;;;;6.05;4.72;;;11.10;99.90;;;;;;6203517;28;20061;-79
2023/01/06 06:39:28;;;;;;;9.18;5.38;;;11.10;99.90;;;;;;6201690;28;20053;-79
2023/01/06 06:42:31;;;;;;;5.50;4.95;;;11.10;99.90;;;;;;6205011;28;20053;-80
2023/01/06 06:45:33;;;;;;;6.43;5.13;;;11.00;99.90;;;;;;6202371;28;20050;-80
2023/01/06 06:48:35;;;;;;;7.05;5.22;;;11.00;99.90;;;;;;6202072;28;20054;-80
2023/01/06 06:51:36;;;;;;;5.40;4.03;;;11.00;99.90;;;;;;6203244;28;20053;-79
2023/01/06 06:54:38;;;;;;;8.05;5.28;;;11.00;99.90;;;;;;6202066;28;20063;-79
2023/01/06 06:57:41;;;;;;;15.63;10.02;;;11.00;99.90;;;;;;6202895;28;20058;-80
2023/01/06 07:00:43;;;;;;;8.80;6.57;;;11.00;99.90;;;;;;6204163;28;20054;-80
2023/01/06 07:03:45;;;;;;;23.13;14.57;;;10.90;99.90;;;;;;6206428;28;20051;-79
2023/01/06 07:06:47;;;;;;;7.03;5.57;;;11.00;99.90;;;;;;6207334;28;20054;-80
2023/01/06 07:09:49;;;;;;;53.28;35.78;;;10.90;99.90;;;;;;6208039;28;20051;-81
2023/01/06 07:12:52;;;;;;;81.72;46.72;;;11.00;99.90;;;;;;6207305;28;20042;-80
2023/01/06 07:15:53;;;;;;;67.03;40.88;;;11.00;99.90;;;;;;6230761;23;20068;-85
2023/01/06 07:18:55;;;;;;;26.92;17.25;;;11.00;99.90;;;;;;6214865;28;20046;-87
2023/01/06 07:21:57;;;;;;;8.07;6.72;;;11.00;99.90;;;;;;6211588;28;20050;-87
2023/01/06 07:24:58;;;;;;;6.85;5.32;;;10.90;99.90;;;;;;6210511;28;20050;-88
2023/01/06 07:28:04;;;;;;;12.65;8.93;;;10.90;99.90;;;;;;6210291;28;20053;-87
2023/01/06 07:31:06;;;;;;;6.20;4.78;;;10.90;99.90;;;;;;6210541;28;20043;-87
2023/01/06 07:34:07;;;;;;;7.40;6.70;;;10.90;99.90;;;;;;6211350;28;20060;-87
2023/01/06 07:37:10;;;;;;;7.28;6.53;;;10.90;99.90;;;;;;6209677;28;20435;-86
2023/01/06 07:40:12;;;;;;;8.45;7.57;;;10.90;99.90;;;;;;6209731;28;20055;-87
2023/01/06 07:43:16;;;;;;;4.47;3.28;;;10.90;99.90;;;;;;6209660;28;20050;-87
2023/01/06 07:46:17;;;;;;;5.38;3.85;;;10.90;99.90;;;;;;6209606;28;20168;-86
2023/01/06 07:49:19;;;;;;;4.65;3.83;;;10.90;99.90;;;;;;6209882;28;20050;-87
2023/01/06 07:52:22;;;;;;;11.38;9.85;;;10.90;99.90;;;;;;6210494;28;20038;-86
2023/01/06 07:55:24;;;;;;;4.05;3.03;;;10.90;99.90;;;;;;6208990;28;20050;-88
2023/01/06 07:58:28;;;;;;;6.85;5.18;;;10.90;99.90;;;;;;6209753;28;20128;-86
2023/01/06 08:01:30;;;;;;;6.18;3.90;;;10.90;99.90;;;;;;6209365;28;20050;-87
2023/01/06 08:04:35;;;;;;;9.85;7.13;;;10.90;99.90;;;;;;6213492;28;20051;-86
2023/01/06 08:07:38;;;;;;;4.28;3.45;;;10.90;99.90;;;;;;6195071;28;20045;-85
2023/01/06 08:10:41;;;;;;;6.32;3.92;;;10.90;99.90;;;;;;6192703;28;20146;-85
2023/01/06 08:18:12;;;;;;;8.00;3.47;;;11.00;99.90;;;;;;6161602;28;20094;-87
2023/01/06 08:21:25;;;;;;;7.28;5.68;;;11.00;99.90;;;;;;6164761;28;20066;-87
2023/01/06 08:25:00;;;;;;;22.52;18.40;;;11.10;99.90;;;;;;6140432;28;20103;-85
2023/01/06 08:47:39;;;;;;;1.65;1.50;;;11.50;99.90;;;;;;6039209;29;20065;-86
2023/01/06 08:50:59;;;;;;;2.67;2.00;;;11.60;99.90;;;;;;6074002;29;20074;-85
2023/01/06 09:04:22;;;;;;;1.95;0.93;;;12.10;99.90;;;;;;6202462;28;20054;-86
2023/01/06 09:07:28;;;;;;;5.38;0.93;;;12.20;99.90;;;;;;6180351;28;20043;-84
2023/01/06 09:10:30;;;;;;;2.20;1.08;;;12.40;99.90;;;;;;6181872;28;20066;-84
2023/01/06 09:13:32;;;;;;;0.80;0.60;;;12.50;99.90;;;;;;6173360;28;20038;-86
2023/01/06 09:16:47;;;;;;;39.20;28.17;;;12.50;99.90;;;;;;6179135;28;20076;-86
2023/01/06 09:24:17;;;;;;;3.03;2.08;;;12.60;99.90;;;;;;6188345;28;20407;-90
2023/01/06 09:27:19;;;;;;;2.05;1.95;;;12.60;99.90;;;;;;6181647;28;20098;-84
2023/01/06 09:30:24;;;;;;;0.77;0.57;;;12.60;99.90;;;;;;6180080;28;20047;-86
2023/01/06 09:33:25;;;;;;;0.35;0.32;;;12.60;99.90;;;;;;6178343;28;20050;-84
2023/01/06 09:36:27;;;;;;;1.08;0.50;;;12.60;99.90;;;;;;6179429;28;20126;-87
2023/01/06 09:39:30;;;;;;;1.42;1.02;;;12.60;99.90;;;;;;6180461;28;20481;-85
2023/01/06 09:42:48;;;;;;;0.73;0.55;;;12.60;99.90;;;;;;6175428;28;20059;-86
2023/01/06 09:45:57;;;;;;;0.82;0.50;;;12.50;99.90;;;;;;6156690;29;20365;-86
2023/01/06 09:49:03;;;;;;;2.85;0.80;;;12.50;99.90;;;;;;6157162;28;20054;-86
2023/01/06 09:52:12;;;;;;;1.20;0.90;;;12.50;99.90;;;;;;6158027;28;20061;-85
2023/01/06 09:55:20;;;;;;;0.60;0.60;;;12.40;99.90;;;;;;6155938;28;20194;-86
2023/01/06 09:58:24;;;;;;;;;;;12.60;99.90;;;;;;6162866;28;20053;-85
2023/01/06 10:01:30;;;;;;;1.02;0.95;;;12.60;99.90;;;;;;6153121;28;19936;-83
2023/01/06 10:04:34;;;;;;;0.90;0.80;;;12.60;99.90;;;;;;6142935;28;20051;-84
2023/01/06 10:07:42;;;;;;;1.00;0.88;;;12.70;99.90;;;;;;6150739;28;20063;-85
2023/01/06 10:10:53;;;;;;;4.03;1.10;;;12.80;99.90;;;;;;6151683;28;20055;-86
2023/01/06 10:14:06;;;;;;;2.58;0.93;;;13.00;99.90;;;;;;6171507;28;20166;-83
2023/01/06 10:17:30;;;;;;;0.82;0.60;;;13.20;99.90;;;;;;6177462;28;20051;-86
2023/01/06 10:20:58;;;;;;;0.63;0.57;;;13.40;99.90;;;;;;6177198;28;20051;-84
2023/01/06 10:24:19;;;;;;;4.32;1.23;;;13.60;99.90;;;;;;6170977;28;20401;-85
2023/01/06 10:27:27;;;;;;;0.57;0.50;;;13.80;99.90;;;;;;6177195;28;20475;-86
2023/01/06 10:30:37;;;;;;;0.63;0.55;;;14.30;99.90;;;;;;6178552;28;20078;-85
2023/01/06 10:33:43;;;;;;;3.10;0.60;;;14.40;99.90;;;;;;6178559;28;20050;-86
2023/01/06 10:36:49;;;;;;;0.98;0.60;;;14.50;99.90;;;;;;6182066;28;20046;-85
2023/01/06 10:39:58;;;;;;;1.30;0.80;;;14.40;99.90;;;;;;6159617;28;20047;-86
2023/01/06 10:43:05;;;;;;;1.00;0.50;;;14.50;99.90;;;;;;6168083;28;20047;-85
2023/01/06 10:46:07;;;;;;;0.98;0.70;;;14.90;99.90;;;;;;6183517;28;20050;-87
2023/01/06 10:49:15;;;;;;;0.98;0.30;;;15.40;99.90;;;;;;6181470;28;20058;-87
2023/01/06 10:52:19;;;;;;;;;;;15.50;99.90;;;;;;6183628;28;20065;-85
2023/01/06 10:55:39;;;;;;;1.52;1.17;;;15.50;99.90;;;;;;6169974;28;20384;-86
2023/01/06 10:58:57;;;;;;;1.13;0.70;;;15.40;99.90;;;;;;6179549;28;20057;-86
2023/01/06 11:01:59;;;;;;;1.90;0.90;;;15.20;99.90;;;;;;6185950;28;20133;-85
2023/01/06 11:05:22;;;;;;;1.63;0.80;;;15.00;99.90;;;;;;6192540;28;20597;-86
2023/01/06 11:08:24;;;;;;;1.00;0.90;;;14.60;99.90;;;;;;6190887;28;20043;-85
2023/01/06 11:11:26;;;;;;;0.73;0.73;;;14.50;99.90;;;;;;6179569;28;20047;-85
2023/01/06 11:14:31;;;;;;;0.65;0.63;;;14.30;99.90;;;;;;6171852;28;20110;-85
2023/01/06 11:17:33;;;;;;;2.42;1.50;;;14.20;99.90;;;;;;6161032;28;20050;-85
2023/01/06 11:20:35;;;;;;;0.70;0.70;;;14.30;99.90;;;;;;6160495;28;20055;-84
2023/01/06 11:23:38;;;;;;;1.95;0.70;;;14.30;99.90;;;;;;6162591;28;20138;-84
2023/01/06 11:26:44;;;;;;;1.98;0.80;;;14.30;99.90;;;;;;6161885;28;20051;-84
2023/01/06 11:29:48;;;;;;;0.82;0.82;;;14.40;99.90;;;;;;6160930;28;20687;-84
2023/01/06 11:33:06;;;;;;;2.60;0.68;;;14.50;99.90;;;;;;6164626;28;20063;-87
2023/01/06 11:36:11;;;;;;;0.80;0.50;;;14.50;99.90;;;;;;6180544;28;20050;-86
2023/01/06 11:39:16;;;;;;;2.53;0.60;;;14.30;99.90;;;;;;6185392;28;20051;-84
2023/01/06 11:42:19;;;;;;;1.40;0.73;;;14.50;99.90;;;;;;6180276;28;20083;-84
2023/01/06 11:45:37;;;;;;;0.57;0.50;;;14.70;99.90;;;;;;6178952;28;20567;-84
2023/01/06 11:48:42;;;;;;;;;;;14.80;99.90;;;;;;6183639;28;20139;-84
2023/01/06 11:51:52;;;;;;;2.25;1.75;;;14.50;99.90;;;;;;6185666;28;20045;-84
2023/01/06 11:54:59;;;;;;;2.50;0.60;;;14.40;99.90;;;;;;6184107;28;20159;-82
2023/01/06 11:58:07;;;;;;;3.50;0.65;;;14.20;99.90;;;;;;6177899;28;20043;-86
2023/01/06 12:01:16;;;;;;;1.45;1.20;;;14.10;99.90;;;;;;6185045;28;20125;-85
2023/01/06 12:04:27;;;;;;;4.40;1.00;;;14.00;99.90;;;;;;6185761;28;20045;-85
2023/01/06 12:07:35;;;;;;;0.75;0.60;;;14.00;99.90;;;;;;6183061;28;20053;-83
2023/01/06 12:10:42;;;;;;;2.65;0.85;;;14.00;99.90;;;;;;6182784;28;20055;-85
2023/01/06 12:13:44;;;;;;;0.90;0.70;;;13.80;99.90;;;;;;6176332;28;20075;-84
2023/01/06 12:17:04;;;;;;;0.40;0.40;;;13.60;99.90;;;;;;6180806;28;20525;-86
2023/01/06 12:31:10;;;;;;;1.10;0.95;;;13.40;99.90;;;;;;6188803;28;20551;-85
2023/01/06 12:34:35;;;;;;;3.88;0.75;;;13.50;99.90;;;;;;6206119;28;20054;-86
2023/01/06 12:37:48;;;;;;;1.35;1.05;;;13.50;99.90;;;;;;6197427;28;20105;-85
2023/01/06 12:40:55;;;;;;;0.73;0.73;;;13.50;99.90;;;;;;6151409;28;20058;-84
2023/01/06 12:44:03;;;;;;;0.68;0.68;;;13.50;99.90;;;;;;6164445;28;20229;-86
2023/01/06 12:47:13;;;;;;;1.33;0.80;;;13.60;99.90;;;;;;6165611;28;20051;-86
2023/01/06 12:50:25;;;;;;;2.40;0.95;;;13.50;99.90;;;;;;6163307;28;20641;-84
2023/01/06 13:01:50;;;;;;;1.35;0.85;;;13.40;99.90;;;;;;6162509;28;20058;-85
2023/01/06 13:13:22;;;;;;;0.63;0.63;;;13.10;99.90;;;;;;6093592;29;20079;-83
2023/01/06 13:43:48;;;;;;;1.55;1.45;;;12.70;99.90;;;;;;6159166;28;20061;-81
2023/01/06 13:47:01;;;;;;;2.05;1.38;;;12.60;99.90;;;;;;6175666;28;20509;-85
2023/01/06 13:50:32;;;;;;;1.55;1.45;;;12.70;99.90;;;;;;6181866;28;20057;-85
2023/01/06 13:54:14;;;;;;;3.55;2.10;;;12.80;99.90;;;;;;6183242;28;20054;-83
2023/01/06 14:06:02;;;;;;;2.60;2.33;;;12.80;99.90;;;;;;6181825;28;20062;-84
2023/01/06 14:09:23;;;;;;;1.85;1.48;;;12.80;99.90;;;;;;6178317;28;20050;-84
2023/01/06 14:28:31;;;;;;;5.43;3.42;;;12.60;99.90;;;;;;6177981;28;20220;-83
2023/01/06 14:31:47;;;;;;;4.63;3.47;;;12.60;99.90;;;;;;6189102;28;20050;-85
2023/01/06 14:34:54;;;;;;;11.75;7.72;;;12.60;99.90;;;;;;6181438;28;20434;-85
2023/01/06 14:37:59;;;;;;;7.68;5.57;;;12.50;99.90;;;;;;6158264;29;20626;-84
2023/01/06 14:41:16;;;;;;;5.63;4.43;;;12.50;99.90;;;;;;6164745;28;20057;-86
2023/01/06 14:44:25;;;;;;;4.55;3.40;;;12.50;99.90;;;;;;6179646;28;20054;-84
2023/01/06 14:47:33;;;;;;;3.30;2.72;;;12.50;99.90;;;;;;6183333;28;20519;-85
2023/01/06 14:50:40;;;;;;;7.15;3.97;;;12.50;99.90;;;;;;6183668;28;20090;-83
2023/01/06 14:53:47;;;;;;;3.37;2.13;;;12.50;99.90;;;;;;6184871;28;20050;-86
2023/01/06 14:56:53;;;;;;;2.65;2.40;;;12.50;99.90;;;;;;6187972;28;20047;-85
2023/01/06 15:00:08;;;;;;;3.88;2.78;;;12.40;99.90;;;;;;6166792;28;20503;-85
2023/01/06 15:03:20;;;;;;;4.68;3.35;;;12.40;99.90;;;;;;6180931;28;20057;-85
2023/01/06 15:06:24;;;;;;;1.63;1.40;;;12.40;99.90;;;;;;6171338;28;20047;-85
2023/01/06 15:09:25;;;;;;;2.97;2.17;;;12.30;99.90;;;;;;6177297;28;20049;-85
2023/01/06 15:12:30;;;;;;;2.60;2.10;;;12.40;99.90;;;;;;6171655;28;20059;-85
2023/01/06 15:15:36;;;;;;;1.00;0.90;;;12.30;99.90;;;;;;6160222;28;20062;-84
2023/01/06 15:18:44;;;;;;;1.17;0.98;;;12.30;99.90;;;;;;6157704;28;20058;-84
2023/01/06 15:21:50;;;;;;;0.80;0.80;;;12.20;99.90;;;;;;6159847;28;20398;-84
2023/01/06 15:24:54;;;;;;;1.48;1.27;;;12.10;99.90;;;;;;6162719;28;20053;-85
2023/01/06 15:28:00;;;;;;;3.78;1.30;;;12.00;99.90;;;;;;6161106;28;20062;-84
2023/01/06 15:43:07;;;;;;;0.82;0.73;;;11.70;99.90;;;;;;6105743;29;20049;-84
2023/01/06 15:50:01;;;;;;;1.75;1.20;;;11.50;99.90;;;;;;6110981;29;20048;-85
2023/01/06 15:53:16;;;;;;;2.58;1.92;;;11.40;99.90;;;;;;6126753;28;20059;-83
2023/01/06 15:56:28;;;;;;;1.08;0.88;;;11.30;99.90;;;;;;6152995;28;20050;-85
2023/01/06 16:00:08;;;;;;;7.95;5.40;;;11.30;99.90;;;;;;6183585;28;20796;-84
2023/01/06 16:03:27;;;;;;;10.57;6.43;;;11.20;99.90;;;;;;6182207;28;20054;-85
2023/01/06 16:06:58;;;;;;;7.53;4.72;;;11.10;99.90;;;;;;6186278;28;20122;-86
2023/01/06 16:10:04;;;;;;;1.15;0.60;;;11.00;99.90;;;;;;6182723;28;20047;-85
2023/01/06 16:16:50;;;;;;;18.73;9.77;;;10.90;99.90;;;;;;6158434;29;20067;-84
2023/01/06 16:24:35;;;;;;;34.42;17.83;;;10.90;99.90;;;;;;6144481;28;20051;-84
2023/01/06 16:35:36;;;;;;;0.45;0.40;;;10.80;99.90;;;;;;6147863;28;20055;-83
2023/01/06 16:38:54;;;;;;;0.68;0.40;;;10.80;99.90;;;;;;6153646;29;20516;-85
2023/01/06 16:42:41;;;;;;;0.32;0.30;;;10.70;99.90;;;;;;6169777;28;20055;-83
2023/01/06 16:45:49;;;;;;;0.93;0.70;;;10.60;99.90;;;;;;6182716;28;20047;-84
2023/01/06 16:48:53;;;;;;;0.47;0.47;;;10.60;99.90;;;;;;6181983;28;20055;-85
2023/01/06 16:51:55;;;;;;;1.48;0.70;;;10.50;99.90;;;;;;6182117;28;20535;-84
2023/01/06 16:54:57;;;;;;;2.42;0.82;;;10.40;99.90;;;;;;6181497;28;20061;-84
2023/01/06 16:57:59;;;;;;;5.10;3.15;;;10.30;99.90;;;;;;6181515;28;20134;-84
2023/01/06 17:01:19;;;;;;;2.72;1.13;;;10.30;99.90;;;;;;6180410;28;20094;-82
2023/01/06 17:04:23;;;;;;;;;;;10.10;99.90;;;;;;6181795;28;20216;-83
2023/01/06 17:07:28;;;;;;;0.70;0.70;;;10.20;99.90;;;;;;6180356;28;19922;-82
2023/01/06 17:10:35;;;;;;;0.80;0.52;;;10.10;99.90;;;;;;6182861;28;20050;-84
2023/01/06 17:13:38;;;;;;;2.28;0.60;;;10.10;99.90;;;;;;6167053;28;20058;-84
2023/01/06 17:16:49;;;;;;;1.80;0.90;;;10.00;99.90;;;;;;6157394;28;20058;-84
2023/01/06 17:23:18;;;;;;;2.38;2.00;;;10.10;99.90;;;;;;6156702;28;20054;-83
2023/01/06 17:26:22;;;;;;;10.30;2.17;;;10.50;99.90;;;;;;6157830;29;20136;-84
2023/01/06 17:29:28;;;;;;;1.83;1.58;;;10.70;99.90;;;;;;6156856;28;20051;-82
2023/01/06 17:32:36;;;;;;;1.80;0.93;;;10.80;99.90;;;;;;6154510;28;20481;-84
2023/01/06 17:35:38;;;;;;;1.52;0.95;;;10.70;99.90;;;;;;6152581;28;20069;-82
2023/01/06 17:38:43;;;;;;;4.20;1.00;;;10.50;99.90;;;;;;6166181;28;20109;-82
2023/01/06 17:41:45;;;;;;;2.00;1.30;;;10.30;99.90;;;;;;6170816;28;20078;-83
2023/01/06 17:44:50;;;;;;;2.60;1.55;;;10.20;99.90;;;;;;6163085;28;20054;-83
2023/01/06 17:47:53;;;;;;;0.95;0.85;;;10.10;99.90;;;;;;6147973;28;20063;-83
2023/01/06 17:50:57;;;;;;;1.70;1.20;;;10.10;99.90;;;;;;6151140;28;20410;-83
2023/01/06 17:57:19;;;;;;;3.05;1.55;;;10.00;99.90;;;;;;6152349;28;20134;-80
2023/01/06 18:00:24;;;;;;;3.00;1.33;;;10.00;99.90;;;;;;6153159;28;20047;-83
2023/01/06 18:03:30;;;;;;;1.23;0.90;;;10.00;99.90;;;;;;6171346;28;20416;-82
2023/01/06 18:06:51;;;;;;;2.53;1.10;;;10.00;99.90;;;;;;6181432;28;20054;-85
2023/01/06 18:09:55;;;;;;;1.42;1.30;;;9.90;99.90;;;;;;6181091;28;20058;-83
2023/01/06 18:27:55;;;;;;;1.85;1.58;;;9.90;99.90;;;;;;6152350;28;20079;-82
2023/01/06 18:42:54;;;;;;;2.83;2.03;;;10.20;99.90;;;;;;6143162;28;20090;-81
2023/01/06 18:46:02;;;;;;;3.30;3.00;;;10.20;99.90;;;;;;6161968;28;20043;-80
2023/01/06 18:56:08;;;;;;;5.32;4.90;;;10.40;99.90;;;;;;6134224;28;20393;-83
2023/01/06 18:59:27;;;;;;;6.15;4.63;;;10.50;99.90;;;;;;6160460;28;20057;-84
2023/01/06 19:02:39;;;;;;;6.97;4.47;;;10.50;99.90;;;;;;6162726;29;20134;-83
2023/01/06 19:05:41;;;;;;;6.30;5.63;;;10.60;99.90;;;;;;6181278;28;20077;-81
2023/01/06 19:08:46;;;;;;;4.25;3.85;;;10.60;99.90;;;;;;6184229;28;20054;-82
2023/01/06 19:11:59;;;;;;;5.25;3.50;;;10.70;99.90;;;;;;6184627;28;20130;-84
2023/01/06 19:15:19;;;;;;;4.25;3.85;;;10.60;99.90;;;;;;6177482;28;20206;-84
2023/01/06 19:18:21;;;;;;;3.17;2.88;;;10.70;99.90;;;;;;6184296;28;20059;-84
2023/01/06 19:21:23;;;;;;;2.78;2.58;;;10.70;99.90;;;;;;6184695;28;20057;-84
2023/01/06 19:24:55;;;;;;;6.25;5.60;;;10.70;99.90;;;;;;6184592;28;20062;-84
2023/01/06 19:27:58;;;;;;;5.45;4.72;;;10.70;99.90;;;;;;6150680;28;20073;-84